Weather at Hospital de Carabineros Heliport

Public forecast

Using degrees Celsius for public forecast. Weather courtesy of forecast.io.

Closest aviation weather report (METAR) to Hospital de Carabineros Heliport

Report is more than 6 hours old.

Closest report is Eulogio Sánchez Airport, 2.5 nm (4.6 km) SSW. Retrieved 2020/09/20 21:00 UTC (12 hours ago):

SCTB 202100Z 25008KT CAVOK 25/07 Q1016

Closest aviation forecast (TAF) to Hospital de Carabineros Heliport

Closest forecast is Comodoro Arturo Merino Benítez International Airport, 13.0 nm (24.0 km) W. Retrieved 2020/09/21 06:06 UTC (3 hours ago):

TAF COR SCEL 210559Z 2106/2206 16004KT 2000 BR SCT002 BKN004 TX28/2119Z TN07/2111Z TEMPO 2106/2112 VRB02KT 0700 FG BKN002 BECMG 2112/2114 5000 BR SCT007 BECMG 2114/2116 CAVOK BECMG 2117/2119 21012KT BECMG 2201/2203 16004KT